createdAt,value
2023-05-10T00:00:56.186Z,12.70
2023-05-10T00:03:26.978Z,12.75
2023-05-10T00:05:57.871Z,12.70
2023-05-10T00:08:26.177Z,12.61
2023-05-10T00:10:54.808Z,12.54
2023-05-10T00:13:23.374Z,12.63
2023-05-10T00:15:58.490Z,12.62
2023-05-10T00:18:26.905Z,12.55
2023-05-10T00:21:15.149Z,12.55
2023-05-10T00:23:43.407Z,12.57
2023-05-10T00:26:11.713Z,12.59
2023-05-10T00:28:39.992Z,12.55
2023-05-10T00:31:09.755Z,12.59
2023-05-10T00:33:38.360Z,12.53
2023-05-10T00:36:08.409Z,12.50
2023-05-10T00:38:36.767Z,12.56
2023-05-10T00:41:05.506Z,12.46
2023-05-10T00:43:33.769Z,12.42
2023-05-10T00:46:02.475Z,12.38
2023-05-10T00:48:32.215Z,12.38
2023-05-10T00:51:00.490Z,12.37
2023-05-10T00:53:29.017Z,12.34
2023-05-10T00:55:57.537Z,12.45
2023-05-10T00:58:28.977Z,12.43
2023-05-10T01:00:58.181Z,12.43
2023-05-10T01:03:26.969Z,12.47
2023-05-10T01:05:57.038Z,12.47
2023-05-10T01:08:25.649Z,12.52
2023-05-10T01:10:54.121Z,12.47
2023-05-10T01:13:32.621Z,12.50
2023-05-10T01:16:02.977Z,12.40
2023-05-10T01:18:32.071Z,12.39
2023-05-10T01:21:08.303Z,12.33
2023-05-10T01:23:57.896Z,12.29
2023-05-10T01:26:35.607Z,12.22
2023-05-10T01:29:13.604Z,12.23
2023-05-10T01:32:06.135Z,12.25
2023-05-10T01:34:37.253Z,12.24
2023-05-10T01:37:08.580Z,12.20
2023-05-10T01:39:42.941Z,12.25
2023-05-10T01:42:12.510Z,12.16
2023-05-10T01:44:42.213Z,12.12
2023-05-10T01:47:12.620Z,12.09
2023-05-10T01:49:44.114Z,11.98
2023-05-10T01:52:14.042Z,11.94
2023-05-10T01:54:45.143Z,11.95
2023-05-10T01:57:15.464Z,11.91
2023-05-10T01:59:45.123Z,11.92
2023-05-10T02:02:14.188Z,11.85
2023-05-10T02:04:44.124Z,11.88
2023-05-10T02:07:14.114Z,11.83
2023-05-10T02:09:44.562Z,11.76
2023-05-10T02:12:16.503Z,11.75
2023-05-10T02:14:45.361Z,11.68
2023-05-10T02:17:16.435Z,11.72
2023-05-10T02:19:52.573Z,11.68
2023-05-10T02:22:23.034Z,11.69
2023-05-10T02:24:52.022Z,11.64
2023-05-10T02:27:22.834Z,11.61
2023-05-10T02:29:55.080Z,11.62
2023-05-10T02:32:24.383Z,11.65
2023-05-10T02:34:55.082Z,11.59
2023-05-10T02:37:23.863Z,11.58
2023-05-10T02:39:54.386Z,11.57
2023-05-10T02:42:25.828Z,11.56
2023-05-10T02:44:55.596Z,11.58
2023-05-10T02:47:26.819Z,11.52
2023-05-10T02:49:58.368Z,11.57
2023-05-10T02:52:29.602Z,11.53
2023-05-10T02:55:10.611Z,11.51
2023-05-10T02:57:50.150Z,11.56
2023-05-10T03:00:20.090Z,11.62
2023-05-10T03:02:48.446Z,11.59
2023-05-10T03:05:18.229Z,11.55
2023-05-10T03:07:55.717Z,11.54
2023-05-10T03:10:45.160Z,11.51
2023-05-10T03:13:18.399Z,11.53
2023-05-10T03:15:51.041Z,11.57
2023-05-10T03:18:23.120Z,11.63
2023-05-10T03:20:58.729Z,11.64
2023-05-10T03:23:29.026Z,11.62
2023-05-10T03:25:57.496Z,11.57
2023-05-10T03:28:27.030Z,11.61
2023-05-10T03:30:55.572Z,11.68
2023-05-10T03:33:23.888Z,11.70
2023-05-10T03:35:54.118Z,11.75
2023-05-10T03:38:22.361Z,11.70
2023-05-10T03:40:50.655Z,11.75
2023-05-10T03:43:18.888Z,11.73
2023-05-10T03:45:47.822Z,11.73
2023-05-10T03:48:48.328Z,11.76
2023-05-10T03:51:18.356Z,11.74
2023-05-10T03:53:46.689Z,11.75
2023-05-10T03:56:15.003Z,11.78
2023-05-10T03:58:45.644Z,11.74
2023-05-10T04:01:16.291Z,11.67
2023-05-10T04:03:44.678Z,11.73
2023-05-10T04:06:22.329Z,11.73
2023-05-10T04:08:50.699Z,11.79
2023-05-10T04:11:19.369Z,11.86
2023-05-10T04:13:47.570Z,11.86
2023-05-10T04:16:18.428Z,11.89
2023-05-10T04:18:47.009Z,11.92
2023-05-10T04:21:15.625Z,11.91
2023-05-10T04:23:48.126Z,11.91
2023-05-10T04:26:16.615Z,11.94
2023-05-10T04:28:46.689Z,11.95
2023-05-10T04:31:17.719Z,11.96
2023-05-10T04:33:46.139Z,11.96
2023-05-10T04:36:14.522Z,11.98
2023-05-10T04:38:43.629Z,11.97
2023-05-10T04:41:13.355Z,12.00
2023-05-10T04:43:44.145Z,11.96
2023-05-10T04:46:14.488Z,11.93
2023-05-10T04:48:42.852Z,11.96
2023-05-10T04:51:11.252Z,12.03
2023-05-10T04:53:39.618Z,12.06
2023-05-10T04:56:09.905Z,12.03
2023-05-10T04:58:39.781Z,12.07
2023-05-10T05:01:12.156Z,12.09
2023-05-10T05:03:40.850Z,12.16
2023-05-10T05:06:12.326Z,12.14
2023-05-10T05:08:41.108Z,12.17
2023-05-10T05:11:11.844Z,12.18
2023-05-10T05:13:41.542Z,12.21
2023-05-10T05:16:11.888Z,12.27
2023-05-10T05:18:40.500Z,12.29
2023-05-10T05:21:18.001Z,12.23
2023-05-10T05:23:47.180Z,12.25
2023-05-10T05:26:16.026Z,12.32
2023-05-10T05:28:45.817Z,12.30
2023-05-10T05:31:17.966Z,12.33
2023-05-10T05:33:46.772Z,12.42
2023-05-10T05:36:15.041Z,12.47
2023-05-10T05:38:45.998Z,12.45
2023-05-10T05:41:17.411Z,12.40
2023-05-10T05:43:47.276Z,12.45
2023-05-10T05:46:15.910Z,12.43
2023-05-10T05:48:44.599Z,12.50
2023-05-10T05:51:15.333Z,12.47
2023-05-10T05:54:16.209Z,12.57
2023-05-10T05:58:09.196Z,12.53
2023-05-10T06:01:23.849Z,12.52
2023-05-10T06:04:32.222Z,12.54
2023-05-10T06:07:07.547Z,12.61
2023-05-10T06:09:37.959Z,12.61
2023-05-10T06:12:06.621Z,12.60
2023-05-10T06:15:00.722Z,12.68
2023-05-10T06:17:30.845Z,12.65
2023-05-10T06:19:59.152Z,12.62
2023-05-10T06:22:27.564Z,12.59
2023-05-10T06:24:58.705Z,12.64
2023-05-10T06:27:27.501Z,12.67
2023-05-10T06:30:09.191Z,12.77
2023-05-10T06:32:42.726Z,12.75
2023-05-10T06:35:14.404Z,12.97
2023-05-10T06:37:42.924Z,13.24
2023-05-10T06:40:12.031Z,13.29
2023-05-10T06:42:40.293Z,13.54
2023-05-10T06:45:10.234Z,13.65
2023-05-10T06:47:39.408Z,13.60
2023-05-10T06:50:10.294Z,13.49
2023-05-10T06:52:41.126Z,13.54
2023-05-10T06:55:10.576Z,13.75
2023-05-10T06:57:38.993Z,13.69
2023-05-10T07:00:53.193Z,13.99
2023-05-10T07:03:27.666Z,14.49
2023-05-10T07:06:33.032Z,14.92
2023-05-10T07:09:14.634Z,15.22
2023-05-10T07:11:48.634Z,15.41
2023-05-10T07:14:26.909Z,15.73
2023-05-10T07:17:01.230Z,15.80
2023-05-10T07:19:30.402Z,15.91
2023-05-10T07:22:03.397Z,15.95
2023-05-10T07:24:34.553Z,16.13
2023-05-10T07:27:05.456Z,16.49
2023-05-10T07:29:39.389Z,16.51
2023-05-10T07:32:15.433Z,16.75
2023-05-10T07:34:47.717Z,16.81
2023-05-10T07:37:19.178Z,17.12
2023-05-10T07:40:04.008Z,17.23
2023-05-10T07:42:40.915Z,17.16
2023-05-10T07:45:11.866Z,17.40
2023-05-10T07:47:40.441Z,17.57
2023-05-10T07:50:09.680Z,17.91
2023-05-10T07:52:39.898Z,17.89
2023-05-10T07:55:10.872Z,17.66
2023-05-10T07:57:40.436Z,17.30
2023-05-10T08:00:14.388Z,16.98
2023-05-10T08:02:43.739Z,16.59
2023-05-10T08:05:12.391Z,16.77
2023-05-10T08:07:53.399Z,17.38
2023-05-10T08:10:24.774Z,18.98
2023-05-10T08:12:53.506Z,20.34
2023-05-10T08:15:22.311Z,20.90
2023-05-10T08:17:57.454Z,20.47
2023-05-10T08:20:26.133Z,20.64
2023-05-10T08:22:56.185Z,20.26
2023-05-10T08:25:26.699Z,20.07
2023-05-10T08:28:15.112Z,20.91
2023-05-10T08:30:43.560Z,20.17
2023-05-10T08:33:11.889Z,19.19
2023-05-10T08:35:42.169Z,19.02
2023-05-10T08:38:11.968Z,18.65
2023-05-10T08:40:43.538Z,18.66
2023-05-10T08:43:12.770Z,18.25
2023-05-10T08:45:42.462Z,18.16
2023-05-10T08:48:11.464Z,17.60
2023-05-10T08:50:41.649Z,17.53
2023-05-10T08:53:14.481Z,17.47
2023-05-10T08:55:44.891Z,17.21
2023-05-10T08:58:13.277Z,17.30
2023-05-10T09:00:42.015Z,17.23
2023-05-10T09:03:11.362Z,17.06
2023-05-10T09:05:39.961Z,17.28
2023-05-10T09:08:09.068Z,17.56
2023-05-10T09:10:39.024Z,18.06
2023-05-10T09:13:07.667Z,19.87
2023-05-10T09:15:36.158Z,21.66
2023-05-10T09:18:05.006Z,23.58
2023-05-10T09:20:33.944Z,24.86
2023-05-10T09:23:02.318Z,24.27
2023-05-10T09:25:31.284Z,21.96
2023-05-10T09:28:09.314Z,20.73
2023-05-10T09:30:38.080Z,20.61
2023-05-10T09:33:06.543Z,20.73
2023-05-10T09:35:35.407Z,20.46
2023-05-10T09:38:05.260Z,19.88
2023-05-10T09:40:33.792Z,19.52
2023-05-10T09:43:05.431Z,20.05
2023-05-10T09:45:38.295Z,19.98
2023-05-10T09:48:08.135Z,20.53
2023-05-10T09:50:36.615Z,20.12
2023-05-10T09:53:05.375Z,20.59
2023-05-10T09:55:40.677Z,20.37
2023-05-10T09:58:11.861Z,19.63
2023-05-10T10:00:41.395Z,19.75
2023-05-10T10:03:14.206Z,19.63
2023-05-10T10:05:46.065Z,18.92
2023-05-10T10:08:15.207Z,18.40
2023-05-10T10:10:46.338Z,17.98
2023-05-10T10:13:18.122Z,17.33
2023-05-10T10:15:52.098Z,17.01
2023-05-10T10:18:29.637Z,16.83
2023-05-10T10:20:58.219Z,16.71
2023-05-10T10:23:32.302Z,16.61
2023-05-10T10:26:01.330Z,16.47
2023-05-10T10:28:38.050Z,16.45
2023-05-10T10:31:16.153Z,16.45
2023-05-10T10:33:57.898Z,16.49
2023-05-10T10:36:28.052Z,16.51
2023-05-10T10:39:04.717Z,16.36
2023-05-10T10:41:49.418Z,16.57
2023-05-10T10:44:48.314Z,17.57
2023-05-10T10:47:36.549Z,18.98
2023-05-10T10:50:19.557Z,18.63
2023-05-10T10:52:58.989Z,18.18
2023-05-10T10:55:31.652Z,18.47
2023-05-10T10:58:39.954Z,18.93
2023-05-10T11:01:23.402Z,19.04
2023-05-10T11:04:08.821Z,19.32
2023-05-10T11:06:52.034Z,19.50
2023-05-10T11:09:42.774Z,19.39
2023-05-10T11:12:12.377Z,19.13
2023-05-10T11:14:41.830Z,18.83
2023-05-10T11:17:24.626Z,19.16
2023-05-10T11:20:08.680Z,19.36
2023-05-10T11:25:19.091Z,18.70
2023-05-10T11:27:49.764Z,18.73
2023-05-10T11:33:07.478Z,19.06
2023-05-10T11:35:41.070Z,19.01
2023-05-10T11:38:12.470Z,19.71
2023-05-10T11:40:42.774Z,20.17
2023-05-10T11:43:12.178Z,20.14
2023-05-10T11:45:42.035Z,20.95
2023-05-10T11:48:10.551Z,21.11
2023-05-10T11:50:38.961Z,21.34
2023-05-10T11:53:07.153Z,21.10
2023-05-10T11:55:35.844Z,20.76
2023-05-10T11:58:05.943Z,19.74
2023-05-10T12:00:34.468Z,20.54
2023-05-10T12:03:03.088Z,21.59
2023-05-10T12:05:33.787Z,20.92
2023-05-10T12:08:15.121Z,20.78
2023-05-10T12:10:43.684Z,20.93
2023-05-10T12:13:16.454Z,21.22
2023-05-10T12:15:45.413Z,21.26
2023-05-10T12:18:14.475Z,22.21
2023-05-10T12:20:43.522Z,22.36
2023-05-10T12:23:11.754Z,21.37
2023-05-10T12:25:40.726Z,20.82
2023-05-10T12:28:09.888Z,20.61
2023-05-10T12:30:40.323Z,20.61
2023-05-10T12:33:12.371Z,20.32
2023-05-10T12:35:47.955Z,20.51
2023-05-10T12:38:30.816Z,20.40
2023-05-10T12:40:59.893Z,20.34
2023-05-10T12:43:28.352Z,20.31
2023-05-10T12:46:01.517Z,19.86
2023-05-10T12:48:29.850Z,20.22
2023-05-10T12:50:58.084Z,20.43
2023-05-10T12:53:26.756Z,20.34
2023-05-10T12:55:55.662Z,20.40
2023-05-10T12:58:35.127Z,20.05
2023-05-10T13:01:07.083Z,20.58
2023-05-10T13:03:39.258Z,20.96
2023-05-10T13:06:08.329Z,21.84
2023-05-10T13:08:36.581Z,22.18
2023-05-10T13:11:05.119Z,22.32
2023-05-10T13:13:33.418Z,22.90
2023-05-10T13:16:01.633Z,23.72
2023-05-10T13:18:31.345Z,23.85
2023-05-10T13:21:03.357Z,23.93
2023-05-10T13:23:31.644Z,24.05
2023-05-10T13:26:00.140Z,24.12
2023-05-10T13:28:28.806Z,25.30
2023-05-10T13:30:57.138Z,26.71
2023-05-10T13:33:25.538Z,27.60
2023-05-10T13:35:55.864Z,26.70
2023-05-10T13:38:24.216Z,25.29
2023-05-10T13:40:53.774Z,25.14
2023-05-10T13:43:22.191Z,26.25
2023-05-10T13:45:50.351Z,26.54
2023-05-10T13:48:18.574Z,27.54
2023-05-10T13:50:47.139Z,26.66
2023-05-10T13:53:16.823Z,25.99
2023-05-10T13:55:45.026Z,25.36
2023-05-10T13:58:13.229Z,24.45
2023-05-10T14:00:41.712Z,25.75
2023-05-10T14:03:11.987Z,27.71
2023-05-10T14:05:40.869Z,30.29
2023-05-10T14:08:10.351Z,30.16
2023-05-10T14:10:40.349Z,28.11
2023-05-10T14:13:08.911Z,26.91
2023-05-10T14:15:38.020Z,27.15
2023-05-10T14:18:06.809Z,25.44
2023-05-10T14:20:36.894Z,24.72
2023-05-10T14:23:05.359Z,24.75
2023-05-10T14:25:35.583Z,25.00
2023-05-10T14:28:05.400Z,24.74
2023-05-10T14:30:48.779Z,24.12
2023-05-10T14:33:18.550Z,23.47
2023-05-10T14:35:47.644Z,22.72
2023-05-10T14:38:15.860Z,22.36
2023-05-10T14:40:46.645Z,22.20
2023-05-10T14:43:16.338Z,22.01
2023-05-10T14:45:45.914Z,21.98
2023-05-10T14:48:22.119Z,21.84
2023-05-10T14:50:54.112Z,22.14
2023-05-10T14:53:22.436Z,22.13
2023-05-10T14:55:51.152Z,22.29
2023-05-10T14:58:20.904Z,22.23
2023-05-10T15:00:49.641Z,21.83
2023-05-10T15:03:19.351Z,21.39
2023-05-10T15:05:48.409Z,21.14
2023-05-10T15:08:16.600Z,20.97
2023-05-10T15:10:44.882Z,20.47
2023-05-10T15:13:13.143Z,20.26
2023-05-10T15:15:43.440Z,20.18
2023-05-10T15:18:12.094Z,20.16
2023-05-10T15:20:40.408Z,20.49
2023-05-10T15:23:08.701Z,20.67
2023-05-10T15:25:38.127Z,20.61
2023-05-10T15:28:06.394Z,20.66
2023-05-10T15:30:34.754Z,20.63
2023-05-10T15:33:04.525Z,20.62
2023-05-10T15:35:33.227Z,20.41
2023-05-10T15:38:02.983Z,20.42
2023-05-10T15:40:31.288Z,20.16
2023-05-10T15:42:59.508Z,19.95
2023-05-10T15:45:28.424Z,19.74
2023-05-10T15:47:56.779Z,19.45
2023-05-10T15:50:26.796Z,19.24
2023-05-10T15:52:55.215Z,18.98
2023-05-10T15:55:24.064Z,18.90
2023-05-10T15:57:54.397Z,18.95
2023-05-10T16:00:23.072Z,18.96
2023-05-10T16:02:53.222Z,18.98
2023-05-10T16:05:22.142Z,18.98
2023-05-10T16:07:52.165Z,18.98
2023-05-10T16:10:21.242Z,18.93
2023-05-10T16:12:49.972Z,18.86
2023-05-10T16:15:19.064Z,18.92
2023-05-10T16:17:47.730Z,18.89
2023-05-10T16:20:16.247Z,18.90
2023-05-10T16:22:44.998Z,18.82
2023-05-10T16:25:17.916Z,18.67
2023-05-10T16:27:51.065Z,18.45
2023-05-10T16:30:20.861Z,18.36
2023-05-10T16:32:51.415Z,18.31
2023-05-10T16:35:19.916Z,18.27
2023-05-10T16:37:48.309Z,18.30
2023-05-10T16:40:18.759Z,18.21
2023-05-10T16:42:47.093Z,18.12
2023-05-10T16:45:17.329Z,18.10
2023-05-10T16:47:48.496Z,18.11
2023-05-10T16:50:24.273Z,18.17
2023-05-10T16:52:53.217Z,18.09
2023-05-10T16:55:25.530Z,17.97
2023-05-10T16:57:59.682Z,17.99
2023-05-10T17:00:29.939Z,17.94
2023-05-10T17:02:58.597Z,17.76
2023-05-10T17:05:31.070Z,17.61
2023-05-10T17:07:59.497Z,17.40
2023-05-10T17:10:30.460Z,17.31
2023-05-10T17:12:58.724Z,17.21
2023-05-10T17:15:27.074Z,17.15
2023-05-10T17:17:55.483Z,17.05
2023-05-10T17:20:23.736Z,17.01
2023-05-10T17:22:52.191Z,16.91
2023-05-10T17:25:20.692Z,16.82
2023-05-10T17:27:53.652Z,16.75
2023-05-10T17:30:26.252Z,16.69
2023-05-10T17:32:55.117Z,16.54
2023-05-10T17:35:24.372Z,16.31
2023-05-10T17:37:53.229Z,16.15
2023-05-10T17:40:28.759Z,15.91
2023-05-10T17:42:58.507Z,15.79
2023-05-10T17:45:27.246Z,15.79
2023-05-10T17:47:56.147Z,15.68
2023-05-10T17:50:24.601Z,15.62
2023-05-10T17:52:53.016Z,15.52
2023-05-10T17:55:22.391Z,15.45
2023-05-10T17:57:51.926Z,15.32
2023-05-10T18:00:22.203Z,15.09
2023-05-10T18:02:50.797Z,14.86
2023-05-10T18:05:20.286Z,14.64
2023-05-10T18:07:48.909Z,14.71
2023-05-10T18:10:21.580Z,14.63
2023-05-10T18:12:50.521Z,14.51
2023-05-10T18:15:18.939Z,14.62
2023-05-10T18:17:54.256Z,14.44
2023-05-10T18:20:22.630Z,14.24
2023-05-10T18:22:59.351Z,14.09
2023-05-10T18:25:30.376Z,13.91
2023-05-10T18:27:58.700Z,13.80
2023-05-10T18:30:26.903Z,13.76
2023-05-10T18:32:57.525Z,13.76
2023-05-10T18:35:44.618Z,13.75
2023-05-10T18:38:13.532Z,13.85
2023-05-10T18:40:42.032Z,13.84
2023-05-10T18:43:13.901Z,13.81
2023-05-10T18:45:44.968Z,13.90
2023-05-10T18:48:15.251Z,13.83
2023-05-10T18:50:43.496Z,13.80
2023-05-10T18:53:12.222Z,13.66
2023-05-10T18:55:40.668Z,13.57
2023-05-10T18:58:09.211Z,13.49
2023-05-10T19:00:38.116Z,13.47
2023-05-10T19:03:06.630Z,13.48
2023-05-10T19:05:36.647Z,13.62
2023-05-10T19:08:05.487Z,13.63
2023-05-10T19:10:33.831Z,13.57
2023-05-10T19:13:02.064Z,13.53
2023-05-10T19:15:30.327Z,13.52
2023-05-10T19:17:58.975Z,13.51
2023-05-10T19:20:29.188Z,13.39
2023-05-10T19:23:09.807Z,13.33
2023-05-10T19:25:39.387Z,13.35
2023-05-10T19:28:09.005Z,13.30
2023-05-10T19:30:38.058Z,13.27
2023-05-10T19:33:06.452Z,13.33
2023-05-10T19:35:34.974Z,13.25
2023-05-10T19:38:04.711Z,13.23
2023-05-10T19:40:33.056Z,13.20
2023-05-10T19:43:01.641Z,13.24
2023-05-10T19:45:29.987Z,13.18
2023-05-10T19:47:58.474Z,13.14
2023-05-10T19:50:27.152Z,13.15
2023-05-10T19:52:55.515Z,13.12
2023-05-10T19:55:28.807Z,13.13
2023-05-10T19:57:57.095Z,13.19
2023-05-10T20:00:27.285Z,13.14
2023-05-10T20:02:56.041Z,13.19
2023-05-10T20:05:24.461Z,13.18
2023-05-10T20:07:52.712Z,13.12
2023-05-10T20:10:21.540Z,13.07
2023-05-10T20:12:52.284Z,13.04
2023-05-10T20:15:21.458Z,13.01
2023-05-10T20:17:50.969Z,12.96
2023-05-10T20:20:20.285Z,12.95
2023-05-10T20:22:48.739Z,12.93
2023-05-10T20:25:17.255Z,12.92
2023-05-10T20:27:45.585Z,12.90
2023-05-10T20:30:15.595Z,12.85
2023-05-10T20:32:44.894Z,12.83
2023-05-10T20:35:13.146Z,12.76
2023-05-10T20:37:42.160Z,12.73
2023-05-10T20:40:11.513Z,12.70
2023-05-10T20:42:49.811Z,12.68
2023-05-10T20:45:21.002Z,12.65
2023-05-10T20:47:50.125Z,12.62
2023-05-10T20:50:18.936Z,12.61
2023-05-10T20:52:54.355Z,12.59
2023-05-10T20:55:23.157Z,12.62
2023-05-10T20:58:09.334Z,12.59
2023-05-10T21:00:41.083Z,12.55
2023-05-10T21:03:13.642Z,12.55
2023-05-10T21:05:51.373Z,12.54
2023-05-10T21:08:25.291Z,12.52
2023-05-10T21:11:09.177Z,12.50
2023-05-10T21:13:44.993Z,12.50
2023-05-10T21:16:18.892Z,12.52
2023-05-10T21:18:48.265Z,12.51
2023-05-10T21:21:17.650Z,12.54
2023-05-10T21:23:46.882Z,12.57
2023-05-10T21:26:18.184Z,12.61
2023-05-10T21:28:46.975Z,12.65
2023-05-10T21:31:16.887Z,12.67
2023-05-10T21:33:45.780Z,12.64
2023-05-10T21:36:16.811Z,12.67
2023-05-10T21:38:45.246Z,12.64
2023-05-10T21:41:13.414Z,12.58
2023-05-10T21:43:41.597Z,12.59
2023-05-10T21:46:09.888Z,12.59
2023-05-10T21:48:39.403Z,12.57
2023-05-10T21:51:07.824Z,12.59
2023-05-10T21:53:42.376Z,12.58
2023-05-10T21:56:12.042Z,12.58
2023-05-10T21:58:40.214Z,12.55
2023-05-10T22:01:08.577Z,12.53
2023-05-10T22:03:36.898Z,12.56
2023-05-10T22:06:07.179Z,12.54
2023-05-10T22:08:35.461Z,12.56
2023-05-10T22:11:04.048Z,12.56
2023-05-10T22:13:32.281Z,12.57
2023-05-10T22:16:00.736Z,12.57
2023-05-10T22:18:29.086Z,12.54
2023-05-10T22:20:57.289Z,12.56
2023-05-10T22:23:26.925Z,12.54
2023-05-10T22:25:55.345Z,12.55
2023-05-10T22:28:24.089Z,12.54
2023-05-10T22:30:52.863Z,12.52
2023-05-10T22:33:22.242Z,12.55
2023-05-10T22:35:51.194Z,12.56
2023-05-10T22:38:19.443Z,12.62
2023-05-10T22:40:49.599Z,12.64
2023-05-10T22:43:18.080Z,12.68
2023-05-10T22:45:46.363Z,12.64
2023-05-10T22:48:15.502Z,12.66
2023-05-10T22:50:43.746Z,12.67
2023-05-10T22:53:12.000Z,12.69
2023-05-10T22:55:40.393Z,12.78
2023-05-10T22:58:10.279Z,12.76
2023-05-10T23:00:38.850Z,12.74
2023-05-10T23:03:07.450Z,12.76
2023-05-10T23:05:35.809Z,12.72
2023-05-10T23:08:04.002Z,12.71
2023-05-10T23:10:32.530Z,12.66
2023-05-10T23:13:00.734Z,12.62
2023-05-10T23:15:33.044Z,12.64
2023-05-10T23:18:01.497Z,12.58
2023-05-10T23:20:29.793Z,12.64
2023-05-10T23:22:58.344Z,12.65
2023-05-10T23:25:26.966Z,12.60
2023-05-10T23:27:55.210Z,12.58
2023-05-10T23:30:23.468Z,12.57
2023-05-10T23:32:53.043Z,12.51
2023-05-10T23:35:21.268Z,12.52
2023-05-10T23:37:49.609Z,12.50
2023-05-10T23:40:18.063Z,12.51
2023-05-10T23:42:46.435Z,12.46
2023-05-10T23:45:14.607Z,12.50
2023-05-10T23:47:42.800Z,12.45
2023-05-10T23:50:12.699Z,12.38
2023-05-10T23:52:41.205Z,12.34
2023-05-10T23:55:09.918Z,12.37
2023-05-10T23:57:39.186Z,12.36
